<?xml version="1.0" encoding="UTF-8" standalone="no" ?>
<gpx xmlns="http://www.topografix.com/GPX/1/1" xmlns:xsi="http://www.w3.org/2001/XMLSchema-instance" xsi:schemaLocation="http://www.topografix.com/GPX/1/1 http://www.topografix.com/GPX/1/1/gpx.xsd" version="1.1" creator="VisuGPX - https://www.visugpx.com">
  <metadata>
    <name>VTT Sud Bourgogne</name>
    <desc><![CDATA[Cluny - Tournus : circuits VTT XC]]></desc>
  </metadata>
  <trk>
    <name><![CDATA[4_Le bois des plottes BLEU]]></name>
    <extensions>
      <line xmlns="http://www.topografix.com/GPX/gpx_style/0/2">
        <color>00FFFF</color>
        <width>4</width>
      </line>
    </extensions>
    <trkseg>
      <trkpt lat="46.50229" lon="4.88576">
        <ele>222</ele>
        <time>2020-09-22T10:16:07Z</time>
      </trkpt>
      <trkpt lat="46.50247" lon="4.88583">
        <ele>222</ele>
        <time>2020-09-22T10:16:11Z</time>
      </trkpt>
      <trkpt lat="46.50274" lon="4.88599">
        <ele>222</ele>
        <time>2020-09-22T10:16:18Z</time>
      </trkpt>
      <trkpt lat="46.50298" lon="4.88623">
        <ele>222</ele>
        <time>2020-09-22T10:16:25Z</time>
      </trkpt>
      <trkpt lat="46.50309" lon="4.88626">
        <ele>223</ele>
        <time>2020-09-22T10:16:28Z</time>
      </trkpt>
      <trkpt lat="46.50325" lon="4.88622">
        <ele>223</ele>
        <time>2020-09-22T10:16:31Z</time>
      </trkpt>
      <trkpt lat="46.50337" lon="4.88611">
        <ele>224</ele>
        <time>2020-09-22T10:16:35Z</time>
      </trkpt>
      <trkpt lat="46.50372" lon="4.88563">
        <ele>226</ele>
        <time>2020-09-22T10:16:46Z</time>
      </trkpt>
      <trkpt lat="46.50401" lon="4.88528">
        <ele>227</ele>
        <time>2020-09-22T10:16:55Z</time>
      </trkpt>
      <trkpt lat="46.5041" lon="4.88531">
        <ele>227</ele>
        <time>2020-09-22T10:16:57Z</time>
      </trkpt>
      <trkpt lat="46.50411" lon="4.88556">
        <ele>227</ele>
        <time>2020-09-22T10:17:01Z</time>
      </trkpt>
      <trkpt lat="46.50427" lon="4.88589">
        <ele>227</ele>
        <time>2020-09-22T10:17:07Z</time>
      </trkpt>
      <trkpt lat="46.50452" lon="4.88615">
        <ele>228</ele>
        <time>2020-09-22T10:17:15Z</time>
      </trkpt>
      <trkpt lat="46.50477" lon="4.88631">
        <ele>229</ele>
        <time>2020-09-22T10:17:21Z</time>
      </trkpt>
      <trkpt lat="46.50508" lon="4.88656">
        <ele>231</ele>
        <time>2020-09-22T10:17:29Z</time>
      </trkpt>
      <trkpt lat="46.50537" lon="4.8869">
        <ele>232</ele>
        <time>2020-09-22T10:17:38Z</time>
      </trkpt>
      <trkpt lat="46.50551" lon="4.88702">
        <ele>233</ele>
        <time>2020-09-22T10:17:42Z</time>
      </trkpt>
      <trkpt lat="46.50609" lon="4.88731">
        <ele>235</ele>
        <time>2020-09-22T10:17:56Z</time>
      </trkpt>
      <trkpt lat="46.50622" lon="4.88741">
        <ele>235</ele>
        <time>2020-09-22T10:17:59Z</time>
      </trkpt>
      <trkpt lat="46.50698" lon="4.88818">
        <ele>239</ele>
        <time>2020-09-22T10:18:21Z</time>
      </trkpt>
      <trkpt lat="46.50714" lon="4.88837">
        <ele>240</ele>
        <time>2020-09-22T10:18:26Z</time>
      </trkpt>
      <trkpt lat="46.50728" lon="4.88825">
        <ele>241</ele>
        <time>2020-09-22T10:18:30Z</time>
      </trkpt>
      <trkpt lat="46.50732" lon="4.88817">
        <ele>242</ele>
        <time>2020-09-22T10:18:31Z</time>
      </trkpt>
      <trkpt lat="46.50752" lon="4.88821">
        <ele>243</ele>
        <time>2020-09-22T10:18:36Z</time>
      </trkpt>
      <trkpt lat="46.50771" lon="4.88831">
        <ele>245</ele>
        <time>2020-09-22T10:18:41Z</time>
      </trkpt>
      <trkpt lat="46.50795" lon="4.88853">
        <ele>247</ele>
        <time>2020-09-22T10:18:47Z</time>
      </trkpt>
      <trkpt lat="46.50874" lon="4.88945">
        <ele>249</ele>
        <time>2020-09-22T10:19:11Z</time>
      </trkpt>
      <trkpt lat="46.50906" lon="4.88989">
        <ele>249</ele>
        <time>2020-09-22T10:19:21Z</time>
      </trkpt>
      <trkpt lat="46.50947" lon="4.89064">
        <ele>250</ele>
        <time>2020-09-22T10:19:37Z</time>
      </trkpt>
      <trkpt lat="46.50963" lon="4.89089">
        <ele>251</ele>
        <time>2020-09-22T10:19:42Z</time>
      </trkpt>
      <trkpt lat="46.51027" lon="4.89169">
        <ele>256</ele>
        <time>2020-09-22T10:20:02Z</time>
      </trkpt>
      <trkpt lat="46.51122" lon="4.8928">
        <ele>259</ele>
        <time>2020-09-22T10:20:30Z</time>
      </trkpt>
      <trkpt lat="46.5118" lon="4.89326">
        <ele>260</ele>
        <time>2020-09-22T10:20:46Z</time>
      </trkpt>
      <trkpt lat="46.51235" lon="4.89363">
        <ele>261</ele>
        <time>2020-09-22T10:21:00Z</time>
      </trkpt>
      <trkpt lat="46.51322" lon="4.894">
        <ele>259</ele>
        <time>2020-09-22T10:21:21Z</time>
      </trkpt>
      <trkpt lat="46.51347" lon="4.89415">
        <ele>258</ele>
        <time>2020-09-22T10:21:27Z</time>
      </trkpt>
      <trkpt lat="46.51363" lon="4.8943">
        <ele>257</ele>
        <time>2020-09-22T10:21:32Z</time>
      </trkpt>
      <trkpt lat="46.51384" lon="4.89464">
        <ele>254</ele>
        <time>2020-09-22T10:21:39Z</time>
      </trkpt>
      <trkpt lat="46.51422" lon="4.895">
        <ele>252</ele>
        <time>2020-09-22T10:21:50Z</time>
      </trkpt>
      <trkpt lat="46.51449" lon="4.89507">
        <ele>253</ele>
        <time>2020-09-22T10:21:56Z</time>
      </trkpt>
      <trkpt lat="46.51506" lon="4.89539">
        <ele>252</ele>
        <time>2020-09-22T10:22:11Z</time>
      </trkpt>
      <trkpt lat="46.51514" lon="4.89541">
        <ele>253</ele>
        <time>2020-09-22T10:22:12Z</time>
      </trkpt>
      <trkpt lat="46.51529" lon="4.89574">
        <ele>252</ele>
        <time>2020-09-22T10:22:19Z</time>
      </trkpt>
      <trkpt lat="46.51542" lon="4.89589">
        <ele>253</ele>
        <time>2020-09-22T10:22:23Z</time>
      </trkpt>
      <trkpt lat="46.51566" lon="4.89658">
        <ele>251</ele>
        <time>2020-09-22T10:22:35Z</time>
      </trkpt>
      <trkpt lat="46.51581" lon="4.89686">
        <ele>250</ele>
        <time>2020-09-22T10:22:41Z</time>
      </trkpt>
      <trkpt lat="46.51611" lon="4.89733">
        <ele>249</ele>
        <time>2020-09-22T10:22:51Z</time>
      </trkpt>
      <trkpt lat="46.517" lon="4.89857">
        <ele>251</ele>
        <time>2020-09-22T10:23:20Z</time>
      </trkpt>
      <trkpt lat="46.51721" lon="4.89894">
        <ele>252</ele>
        <time>2020-09-22T10:23:28Z</time>
      </trkpt>
      <trkpt lat="46.51724" lon="4.899">
        <ele>252</ele>
        <time>2020-09-22T10:23:29Z</time>
      </trkpt>
      <trkpt lat="46.51724" lon="4.89907">
        <ele>252</ele>
        <time>2020-09-22T10:23:30Z</time>
      </trkpt>
      <trkpt lat="46.5174" lon="4.89936">
        <ele>252</ele>
        <time>2020-09-22T10:23:36Z</time>
      </trkpt>
      <trkpt lat="46.51837" lon="4.89996">
        <ele>262</ele>
        <time>2020-09-22T10:24:00Z</time>
      </trkpt>
      <trkpt lat="46.51848" lon="4.90001">
        <ele>263</ele>
        <time>2020-09-22T10:24:03Z</time>
      </trkpt>
      <trkpt lat="46.51868" lon="4.90001">
        <ele>266</ele>
        <time>2020-09-22T10:24:08Z</time>
      </trkpt>
      <trkpt lat="46.51885" lon="4.90005">
        <ele>268</ele>
        <time>2020-09-22T10:24:12Z</time>
      </trkpt>
      <trkpt lat="46.51988" lon="4.90078">
        <ele>274</ele>
        <time>2020-09-22T10:24:39Z</time>
      </trkpt>
      <trkpt lat="46.5208" lon="4.90128">
        <ele>280</ele>
        <time>2020-09-22T10:25:02Z</time>
      </trkpt>
      <trkpt lat="46.52182" lon="4.90208">
        <ele>280</ele>
        <time>2020-09-22T10:25:29Z</time>
      </trkpt>
      <trkpt lat="46.52208" lon="4.90224">
        <ele>281</ele>
        <time>2020-09-22T10:25:35Z</time>
      </trkpt>
      <trkpt lat="46.52317" lon="4.90253">
        <ele>289</ele>
        <time>2020-09-22T10:26:01Z</time>
      </trkpt>
      <trkpt lat="46.52373" lon="4.9029">
        <ele>292</ele>
        <time>2020-09-22T10:26:15Z</time>
      </trkpt>
      <trkpt lat="46.52387" lon="4.90293">
        <ele>294</ele>
        <time>2020-09-22T10:26:19Z</time>
      </trkpt>
      <trkpt lat="46.52455" lon="4.90297">
        <ele>298</ele>
        <time>2020-09-22T10:26:35Z</time>
      </trkpt>
      <trkpt lat="46.52504" lon="4.90353">
        <ele>295</ele>
        <time>2020-09-22T10:26:49Z</time>
      </trkpt>
      <trkpt lat="46.52624" lon="4.90453">
        <ele>289</ele>
        <time>2020-09-22T10:27:22Z</time>
      </trkpt>
      <trkpt lat="46.52679" lon="4.90475">
        <ele>289</ele>
        <time>2020-09-22T10:27:35Z</time>
      </trkpt>
      <trkpt lat="46.52696" lon="4.90495">
        <ele>288</ele>
        <time>2020-09-22T10:27:40Z</time>
      </trkpt>
      <trkpt lat="46.52703" lon="4.90528">
        <ele>286</ele>
        <time>2020-09-22T10:27:46Z</time>
      </trkpt>
      <trkpt lat="46.52702" lon="4.90556">
        <ele>284</ele>
        <time>2020-09-22T10:27:50Z</time>
      </trkpt>
      <trkpt lat="46.52644" lon="4.90651">
        <ele>271</ele>
        <time>2020-09-22T10:28:10Z</time>
      </trkpt>
      <trkpt lat="46.52608" lon="4.90737">
        <ele>256</ele>
        <time>2020-09-22T10:28:27Z</time>
      </trkpt>
      <trkpt lat="46.52608" lon="4.90743">
        <ele>255</ele>
        <time>2020-09-22T10:28:28Z</time>
      </trkpt>
      <trkpt lat="46.52611" lon="4.90751">
        <ele>255</ele>
        <time>2020-09-22T10:28:29Z</time>
      </trkpt>
      <trkpt lat="46.52628" lon="4.9076">
        <ele>256</ele>
        <time>2020-09-22T10:28:33Z</time>
      </trkpt>
      <trkpt lat="46.52641" lon="4.90771">
        <ele>257</ele>
        <time>2020-09-22T10:28:37Z</time>
      </trkpt>
      <trkpt lat="46.52687" lon="4.90823">
        <ele>256</ele>
        <time>2020-09-22T10:28:50Z</time>
      </trkpt>
      <trkpt lat="46.52709" lon="4.90863">
        <ele>254</ele>
        <time>2020-09-22T10:28:59Z</time>
      </trkpt>
      <trkpt lat="46.52703" lon="4.90951">
        <ele>244</ele>
        <time>2020-09-22T10:29:13Z</time>
      </trkpt>
      <trkpt lat="46.52713" lon="4.90998">
        <ele>241</ele>
        <time>2020-09-22T10:29:21Z</time>
      </trkpt>
      <trkpt lat="46.52683" lon="4.91104">
        <ele>237</ele>
        <time>2020-09-22T10:29:39Z</time>
      </trkpt>
      <trkpt lat="46.52775" lon="4.91145">
        <ele>236</ele>
        <time>2020-09-22T10:30:02Z</time>
      </trkpt>
      <trkpt lat="46.52863" lon="4.91173">
        <ele>236</ele>
        <time>2020-09-22T10:30:23Z</time>
      </trkpt>
      <trkpt lat="46.52953" lon="4.91265">
        <ele>236</ele>
        <time>2020-09-22T10:30:48Z</time>
      </trkpt>
      <trkpt lat="46.52986" lon="4.91293">
        <ele>235</ele>
        <time>2020-09-22T10:30:57Z</time>
      </trkpt>
      <trkpt lat="46.53052" lon="4.91335">
        <ele>230</ele>
        <time>2020-09-22T10:31:14Z</time>
      </trkpt>
      <trkpt lat="46.53162" lon="4.91365">
        <ele>225</ele>
        <time>2020-09-22T10:31:40Z</time>
      </trkpt>
      <trkpt lat="46.5321" lon="4.91388">
        <ele>224</ele>
        <time>2020-09-22T10:31:52Z</time>
      </trkpt>
      <trkpt lat="46.53232" lon="4.91413">
        <ele>223</ele>
        <time>2020-09-22T10:31:59Z</time>
      </trkpt>
      <trkpt lat="46.53268" lon="4.91492">
        <ele>222</ele>
        <time>2020-09-22T10:32:14Z</time>
      </trkpt>
      <trkpt lat="46.5329" lon="4.91512">
        <ele>222</ele>
        <time>2020-09-22T10:32:20Z</time>
      </trkpt>
      <trkpt lat="46.5332" lon="4.91533">
        <ele>221</ele>
        <time>2020-09-22T10:32:28Z</time>
      </trkpt>
      <trkpt lat="46.53348" lon="4.91549">
        <ele>221</ele>
        <time>2020-09-22T10:32:35Z</time>
      </trkpt>
      <trkpt lat="46.53358" lon="4.91562">
        <ele>221</ele>
        <time>2020-09-22T10:32:38Z</time>
      </trkpt>
      <trkpt lat="46.5337" lon="4.91591">
        <ele>221</ele>
        <time>2020-09-22T10:32:43Z</time>
      </trkpt>
      <trkpt lat="46.53385" lon="4.91599">
        <ele>221</ele>
        <time>2020-09-22T10:32:47Z</time>
      </trkpt>
      <trkpt lat="46.53415" lon="4.91606">
        <ele>221</ele>
        <time>2020-09-22T10:32:54Z</time>
      </trkpt>
      <trkpt lat="46.53527" lon="4.91606">
        <ele>222</ele>
        <time>2020-09-22T10:33:20Z</time>
      </trkpt>
      <trkpt lat="46.53544" lon="4.91609">
        <ele>222</ele>
        <time>2020-09-22T10:33:24Z</time>
      </trkpt>
      <trkpt lat="46.53608" lon="4.91629">
        <ele>222</ele>
        <time>2020-09-22T10:33:39Z</time>
      </trkpt>
      <trkpt lat="46.53651" lon="4.91637">
        <ele>223</ele>
        <time>2020-09-22T10:33:50Z</time>
      </trkpt>
      <trkpt lat="46.53676" lon="4.91639">
        <ele>223</ele>
        <time>2020-09-22T10:33:55Z</time>
      </trkpt>
      <trkpt lat="46.53759" lon="4.91631">
        <ele>222</ele>
        <time>2020-09-22T10:34:15Z</time>
      </trkpt>
      <trkpt lat="46.53805" lon="4.91641">
        <ele>221</ele>
        <time>2020-09-22T10:34:26Z</time>
      </trkpt>
      <trkpt lat="46.53827" lon="4.91641">
        <ele>221</ele>
        <time>2020-09-22T10:34:31Z</time>
      </trkpt>
      <trkpt lat="46.53859" lon="4.91638">
        <ele>221</ele>
        <time>2020-09-22T10:34:38Z</time>
      </trkpt>
      <trkpt lat="46.53932" lon="4.91626">
        <ele>222</ele>
        <time>2020-09-22T10:34:56Z</time>
      </trkpt>
      <trkpt lat="46.53959" lon="4.91623">
        <ele>222</ele>
        <time>2020-09-22T10:35:02Z</time>
      </trkpt>
      <trkpt lat="46.53972" lon="4.91624">
        <ele>223</ele>
        <time>2020-09-22T10:35:05Z</time>
      </trkpt>
      <trkpt lat="46.54021" lon="4.91636">
        <ele>223</ele>
        <time>2020-09-22T10:35:16Z</time>
      </trkpt>
      <trkpt lat="46.54109" lon="4.91669">
        <ele>224</ele>
        <time>2020-09-22T10:35:38Z</time>
      </trkpt>
      <trkpt lat="46.5417" lon="4.91682">
        <ele>223</ele>
        <time>2020-09-22T10:35:52Z</time>
      </trkpt>
      <trkpt lat="46.54212" lon="4.91674">
        <ele>223</ele>
        <time>2020-09-22T10:36:02Z</time>
      </trkpt>
      <trkpt lat="46.54277" lon="4.91671">
        <ele>223</ele>
        <time>2020-09-22T10:36:17Z</time>
      </trkpt>
      <trkpt lat="46.5431" lon="4.91662">
        <ele>222</ele>
        <time>2020-09-22T10:36:25Z</time>
      </trkpt>
      <trkpt lat="46.54264" lon="4.91591">
        <ele>226</ele>
        <time>2020-09-22T10:36:41Z</time>
      </trkpt>
      <trkpt lat="46.54252" lon="4.91584">
        <ele>226</ele>
        <time>2020-09-22T10:36:44Z</time>
      </trkpt>
      <trkpt lat="46.54228" lon="4.91561">
        <ele>226</ele>
        <time>2020-09-22T10:36:50Z</time>
      </trkpt>
      <trkpt lat="46.54193" lon="4.91514">
        <ele>227</ele>
        <time>2020-09-22T10:37:02Z</time>
      </trkpt>
      <trkpt lat="46.54153" lon="4.91474">
        <ele>229</ele>
        <time>2020-09-22T10:37:13Z</time>
      </trkpt>
      <trkpt lat="46.54113" lon="4.9145">
        <ele>230</ele>
        <time>2020-09-22T10:37:23Z</time>
      </trkpt>
      <trkpt lat="46.54097" lon="4.91446">
        <ele>230</ele>
        <time>2020-09-22T10:37:27Z</time>
      </trkpt>
      <trkpt lat="46.54056" lon="4.91453">
        <ele>230</ele>
        <time>2020-09-22T10:37:36Z</time>
      </trkpt>
      <trkpt lat="46.54051" lon="4.91447">
        <ele>230</ele>
        <time>2020-09-22T10:37:38Z</time>
      </trkpt>
      <trkpt lat="46.54049" lon="4.91395">
        <ele>233</ele>
        <time>2020-09-22T10:37:46Z</time>
      </trkpt>
      <trkpt lat="46.54053" lon="4.91256">
        <ele>249</ele>
        <time>2020-09-22T10:38:09Z</time>
      </trkpt>
      <trkpt lat="46.54041" lon="4.91231">
        <ele>251</ele>
        <time>2020-09-22T10:38:14Z</time>
      </trkpt>
      <trkpt lat="46.53995" lon="4.91181">
        <ele>256</ele>
        <time>2020-09-22T10:38:27Z</time>
      </trkpt>
      <trkpt lat="46.53961" lon="4.91102">
        <ele>259</ele>
        <time>2020-09-22T10:38:42Z</time>
      </trkpt>
      <trkpt lat="46.53941" lon="4.91043">
        <ele>259</ele>
        <time>2020-09-22T10:38:53Z</time>
      </trkpt>
      <trkpt lat="46.53939" lon="4.90997">
        <ele>256</ele>
        <time>2020-09-22T10:39:00Z</time>
      </trkpt>
      <trkpt lat="46.53961" lon="4.90963">
        <ele>253</ele>
        <time>2020-09-22T10:39:07Z</time>
      </trkpt>
      <trkpt lat="46.54034" lon="4.90837">
        <ele>240</ele>
        <time>2020-09-22T10:39:34Z</time>
      </trkpt>
      <trkpt lat="46.54067" lon="4.90786">
        <ele>235</ele>
        <time>2020-09-22T10:39:45Z</time>
      </trkpt>
      <trkpt lat="46.54035" lon="4.90779">
        <ele>237</ele>
        <time>2020-09-22T10:39:53Z</time>
      </trkpt>
      <trkpt lat="46.53955" lon="4.90695">
        <ele>241</ele>
        <time>2020-09-22T10:40:16Z</time>
      </trkpt>
      <trkpt lat="46.53954" lon="4.9069">
        <ele>241</ele>
        <time>2020-09-22T10:40:17Z</time>
      </trkpt>
      <trkpt lat="46.53917" lon="4.90648">
        <ele>247</ele>
        <time>2020-09-22T10:40:28Z</time>
      </trkpt>
      <trkpt lat="46.53885" lon="4.90631">
        <ele>249</ele>
        <time>2020-09-22T10:40:35Z</time>
      </trkpt>
      <trkpt lat="46.53836" lon="4.90593">
        <ele>250</ele>
        <time>2020-09-22T10:40:48Z</time>
      </trkpt>
      <trkpt lat="46.53812" lon="4.9058">
        <ele>251</ele>
        <time>2020-09-22T10:40:54Z</time>
      </trkpt>
      <trkpt lat="46.53808" lon="4.90579">
        <ele>251</ele>
        <time>2020-09-22T10:40:55Z</time>
      </trkpt>
      <trkpt lat="46.53777" lon="4.90595">
        <ele>253</ele>
        <time>2020-09-22T10:41:03Z</time>
      </trkpt>
      <trkpt lat="46.53725" lon="4.90604">
        <ele>257</ele>
        <time>2020-09-22T10:41:15Z</time>
      </trkpt>
      <trkpt lat="46.53664" lon="4.90579">
        <ele>264</ele>
        <time>2020-09-22T10:41:30Z</time>
      </trkpt>
      <trkpt lat="46.53621" lon="4.90554">
        <ele>270</ele>
        <time>2020-09-22T10:41:41Z</time>
      </trkpt>
      <trkpt lat="46.53585" lon="4.90537">
        <ele>274</ele>
        <time>2020-09-22T10:41:50Z</time>
      </trkpt>
      <trkpt lat="46.53557" lon="4.90532">
        <ele>276</ele>
        <time>2020-09-22T10:41:56Z</time>
      </trkpt>
      <trkpt lat="46.53547" lon="4.90527">
        <ele>277</ele>
        <time>2020-09-22T10:41:59Z</time>
      </trkpt>
      <trkpt lat="46.53521" lon="4.90506">
        <ele>278</ele>
        <time>2020-09-22T10:42:06Z</time>
      </trkpt>
      <trkpt lat="46.53304" lon="4.9028">
        <ele>265</ele>
        <time>2020-09-22T10:43:08Z</time>
      </trkpt>
      <trkpt lat="46.53192" lon="4.9017">
        <ele>255</ele>
        <time>2020-09-22T10:43:40Z</time>
      </trkpt>
      <trkpt lat="46.53143" lon="4.90114">
        <ele>257</ele>
        <time>2020-09-22T10:43:54Z</time>
      </trkpt>
      <trkpt lat="46.53065" lon="4.90039">
        <ele>274</ele>
        <time>2020-09-22T10:44:16Z</time>
      </trkpt>
      <trkpt lat="46.53025" lon="4.89994">
        <ele>279</ele>
        <time>2020-09-22T10:44:28Z</time>
      </trkpt>
      <trkpt lat="46.52841" lon="4.89815">
        <ele>294</ele>
        <time>2020-09-22T10:45:20Z</time>
      </trkpt>
      <trkpt lat="46.52774" lon="4.89745">
        <ele>300</ele>
        <time>2020-09-22T10:45:39Z</time>
      </trkpt>
      <trkpt lat="46.52713" lon="4.89668">
        <ele>307</ele>
        <time>2020-09-22T10:45:58Z</time>
      </trkpt>
      <trkpt lat="46.52656" lon="4.89613">
        <ele>311</ele>
        <time>2020-09-22T10:46:14Z</time>
      </trkpt>
      <trkpt lat="46.52531" lon="4.89482">
        <ele>310</ele>
        <time>2020-09-22T10:46:50Z</time>
      </trkpt>
      <trkpt lat="46.52516" lon="4.89505">
        <ele>314</ele>
        <time>2020-09-22T10:46:55Z</time>
      </trkpt>
      <trkpt lat="46.52498" lon="4.89541">
        <ele>317</ele>
        <time>2020-09-22T10:47:02Z</time>
      </trkpt>
      <trkpt lat="46.52474" lon="4.89611">
        <ele>321</ele>
        <time>2020-09-22T10:47:14Z</time>
      </trkpt>
      <trkpt lat="46.52457" lon="4.89701">
        <ele>323</ele>
        <time>2020-09-22T10:47:29Z</time>
      </trkpt>
      <trkpt lat="46.52447" lon="4.89728">
        <ele>324</ele>
        <time>2020-09-22T10:47:34Z</time>
      </trkpt>
      <trkpt lat="46.52441" lon="4.89738">
        <ele>325</ele>
        <time>2020-09-22T10:47:37Z</time>
      </trkpt>
      <trkpt lat="46.52437" lon="4.8974">
        <ele>325</ele>
        <time>2020-09-22T10:47:38Z</time>
      </trkpt>
      <trkpt lat="46.52431" lon="4.89739">
        <ele>325</ele>
        <time>2020-09-22T10:47:39Z</time>
      </trkpt>
      <trkpt lat="46.52408" lon="4.89722">
        <ele>325</ele>
        <time>2020-09-22T10:47:45Z</time>
      </trkpt>
      <trkpt lat="46.52369" lon="4.89687">
        <ele>325</ele>
        <time>2020-09-22T10:47:56Z</time>
      </trkpt>
      <trkpt lat="46.52351" lon="4.89681">
        <ele>326</ele>
        <time>2020-09-22T10:48:00Z</time>
      </trkpt>
      <trkpt lat="46.52254" lon="4.89618">
        <ele>323</ele>
        <time>2020-09-22T10:48:25Z</time>
      </trkpt>
      <trkpt lat="46.52215" lon="4.89597">
        <ele>321</ele>
        <time>2020-09-22T10:48:34Z</time>
      </trkpt>
      <trkpt lat="46.52168" lon="4.89576">
        <ele>318</ele>
        <time>2020-09-22T10:48:46Z</time>
      </trkpt>
      <trkpt lat="46.52099" lon="4.89559">
        <ele>311</ele>
        <time>2020-09-22T10:49:02Z</time>
      </trkpt>
      <trkpt lat="46.5202" lon="4.89524">
        <ele>302</ele>
        <time>2020-09-22T10:49:22Z</time>
      </trkpt>
      <trkpt lat="46.5198" lon="4.8949">
        <ele>297</ele>
        <time>2020-09-22T10:49:32Z</time>
      </trkpt>
      <trkpt lat="46.51964" lon="4.89452">
        <ele>297</ele>
        <time>2020-09-22T10:49:40Z</time>
      </trkpt>
      <trkpt lat="46.51957" lon="4.89444">
        <ele>297</ele>
        <time>2020-09-22T10:49:42Z</time>
      </trkpt>
      <trkpt lat="46.51903" lon="4.8942">
        <ele>294</ele>
        <time>2020-09-22T10:49:55Z</time>
      </trkpt>
      <trkpt lat="46.51862" lon="4.89398">
        <ele>290</ele>
        <time>2020-09-22T10:50:05Z</time>
      </trkpt>
      <trkpt lat="46.51856" lon="4.89394">
        <ele>289</ele>
        <time>2020-09-22T10:50:07Z</time>
      </trkpt>
      <trkpt lat="46.51834" lon="4.89369">
        <ele>289</ele>
        <time>2020-09-22T10:50:13Z</time>
      </trkpt>
      <trkpt lat="46.51815" lon="4.89354">
        <ele>288</ele>
        <time>2020-09-22T10:50:18Z</time>
      </trkpt>
      <trkpt lat="46.51795" lon="4.89343">
        <ele>287</ele>
        <time>2020-09-22T10:50:23Z</time>
      </trkpt>
      <trkpt lat="46.51733" lon="4.89328">
        <ele>283</ele>
        <time>2020-09-22T10:50:38Z</time>
      </trkpt>
      <trkpt lat="46.51753" lon="4.89271">
        <ele>289</ele>
        <time>2020-09-22T10:50:48Z</time>
      </trkpt>
      <trkpt lat="46.51797" lon="4.89181">
        <ele>299</ele>
        <time>2020-09-22T10:51:06Z</time>
      </trkpt>
      <trkpt lat="46.51822" lon="4.89133">
        <ele>305</ele>
        <time>2020-09-22T10:51:16Z</time>
      </trkpt>
      <trkpt lat="46.51836" lon="4.89111">
        <ele>308</ele>
        <time>2020-09-22T10:51:20Z</time>
      </trkpt>
      <trkpt lat="46.5186" lon="4.89037">
        <ele>310</ele>
        <time>2020-09-22T10:51:34Z</time>
      </trkpt>
      <trkpt lat="46.51882" lon="4.88982">
        <ele>311</ele>
        <time>2020-09-22T10:51:44Z</time>
      </trkpt>
      <trkpt lat="46.51883" lon="4.88972">
        <ele>311</ele>
        <time>2020-09-22T10:51:45Z</time>
      </trkpt>
      <trkpt lat="46.51921" lon="4.88831">
        <ele>310</ele>
        <time>2020-09-22T10:52:10Z</time>
      </trkpt>
      <trkpt lat="46.51932" lon="4.88763">
        <ele>304</ele>
        <time>2020-09-22T10:52:21Z</time>
      </trkpt>
      <trkpt lat="46.51932" lon="4.88705">
        <ele>299</ele>
        <time>2020-09-22T10:52:30Z</time>
      </trkpt>
      <trkpt lat="46.51928" lon="4.88671">
        <ele>296</ele>
        <time>2020-09-22T10:52:36Z</time>
      </trkpt>
      <trkpt lat="46.51931" lon="4.88664">
        <ele>295</ele>
        <time>2020-09-22T10:52:37Z</time>
      </trkpt>
      <trkpt lat="46.51943" lon="4.8865">
        <ele>293</ele>
        <time>2020-09-22T10:52:41Z</time>
      </trkpt>
      <trkpt lat="46.51977" lon="4.88611">
        <ele>288</ele>
        <time>2020-09-22T10:52:51Z</time>
      </trkpt>
      <trkpt lat="46.5199" lon="4.88603">
        <ele>286</ele>
        <time>2020-09-22T10:52:54Z</time>
      </trkpt>
      <trkpt lat="46.51999" lon="4.88589">
        <ele>285</ele>
        <time>2020-09-22T10:52:57Z</time>
      </trkpt>
      <trkpt lat="46.52016" lon="4.8857">
        <ele>282</ele>
        <time>2020-09-22T10:53:02Z</time>
      </trkpt>
      <trkpt lat="46.52" lon="4.8855">
        <ele>281</ele>
        <time>2020-09-22T10:53:07Z</time>
      </trkpt>
      <trkpt lat="46.51954" lon="4.8852">
        <ele>280</ele>
        <time>2020-09-22T10:53:19Z</time>
      </trkpt>
      <trkpt lat="46.51912" lon="4.88487">
        <ele>279</ele>
        <time>2020-09-22T10:53:30Z</time>
      </trkpt>
      <trkpt lat="46.51777" lon="4.88415">
        <ele>280</ele>
        <time>2020-09-22T10:54:04Z</time>
      </trkpt>
      <trkpt lat="46.51688" lon="4.88347">
        <ele>287</ele>
        <time>2020-09-22T10:54:27Z</time>
      </trkpt>
      <trkpt lat="46.51669" lon="4.88338">
        <ele>289</ele>
        <time>2020-09-22T10:54:32Z</time>
      </trkpt>
      <trkpt lat="46.51643" lon="4.88331">
        <ele>291</ele>
        <time>2020-09-22T10:54:38Z</time>
      </trkpt>
      <trkpt lat="46.51591" lon="4.88322">
        <ele>295</ele>
        <time>2020-09-22T10:54:50Z</time>
      </trkpt>
      <trkpt lat="46.5154" lon="4.88327">
        <ele>296</ele>
        <time>2020-09-22T10:55:02Z</time>
      </trkpt>
      <trkpt lat="46.51501" lon="4.88337">
        <ele>297</ele>
        <time>2020-09-22T10:55:11Z</time>
      </trkpt>
      <trkpt lat="46.51493" lon="4.88336">
        <ele>297</ele>
        <time>2020-09-22T10:55:13Z</time>
      </trkpt>
      <trkpt lat="46.5147" lon="4.88326">
        <ele>297</ele>
        <time>2020-09-22T10:55:19Z</time>
      </trkpt>
      <trkpt lat="46.51413" lon="4.88309">
        <ele>297</ele>
        <time>2020-09-22T10:55:32Z</time>
      </trkpt>
      <trkpt lat="46.51349" lon="4.883">
        <ele>299</ele>
        <time>2020-09-22T10:55:47Z</time>
      </trkpt>
      <trkpt lat="46.51328" lon="4.88292">
        <ele>299</ele>
        <time>2020-09-22T10:55:53Z</time>
      </trkpt>
      <trkpt lat="46.5132" lon="4.88282">
        <ele>298</ele>
        <time>2020-09-22T10:55:55Z</time>
      </trkpt>
      <trkpt lat="46.51315" lon="4.8827">
        <ele>297</ele>
        <time>2020-09-22T10:55:57Z</time>
      </trkpt>
      <trkpt lat="46.51299" lon="4.88213">
        <ele>295</ele>
        <time>2020-09-22T10:56:07Z</time>
      </trkpt>
      <trkpt lat="46.51265" lon="4.88154">
        <ele>294</ele>
        <time>2020-09-22T10:56:20Z</time>
      </trkpt>
      <trkpt lat="46.51243" lon="4.88126">
        <ele>293</ele>
        <time>2020-09-22T10:56:26Z</time>
      </trkpt>
      <trkpt lat="46.51222" lon="4.88104">
        <ele>292</ele>
        <time>2020-09-22T10:56:32Z</time>
      </trkpt>
      <trkpt lat="46.51208" lon="4.88096">
        <ele>292</ele>
        <time>2020-09-22T10:56:36Z</time>
      </trkpt>
      <trkpt lat="46.51191" lon="4.88094">
        <ele>293</ele>
        <time>2020-09-22T10:56:40Z</time>
      </trkpt>
      <trkpt lat="46.51176" lon="4.88089">
        <ele>294</ele>
        <time>2020-09-22T10:56:43Z</time>
      </trkpt>
      <trkpt lat="46.51187" lon="4.88086">
        <ele>293</ele>
        <time>2020-09-22T10:56:46Z</time>
      </trkpt>
      <trkpt lat="46.51192" lon="4.88081">
        <ele>293</ele>
        <time>2020-09-22T10:56:48Z</time>
      </trkpt>
      <trkpt lat="46.51206" lon="4.88074">
        <ele>292</ele>
        <time>2020-09-22T10:56:51Z</time>
      </trkpt>
      <trkpt lat="46.51242" lon="4.88062">
        <ele>289</ele>
        <time>2020-09-22T10:57:00Z</time>
      </trkpt>
      <trkpt lat="46.51309" lon="4.88034">
        <ele>282</ele>
        <time>2020-09-22T10:57:16Z</time>
      </trkpt>
      <trkpt lat="46.5136" lon="4.88009">
        <ele>278</ele>
        <time>2020-09-22T10:57:28Z</time>
      </trkpt>
      <trkpt lat="46.51441" lon="4.87953">
        <ele>274</ele>
        <time>2020-09-22T10:57:49Z</time>
      </trkpt>
      <trkpt lat="46.5145" lon="4.87945">
        <ele>273</ele>
        <time>2020-09-22T10:57:52Z</time>
      </trkpt>
      <trkpt lat="46.51461" lon="4.87928">
        <ele>272</ele>
        <time>2020-09-22T10:57:56Z</time>
      </trkpt>
      <trkpt lat="46.51475" lon="4.87857">
        <ele>271</ele>
        <time>2020-09-22T10:58:07Z</time>
      </trkpt>
      <trkpt lat="46.51485" lon="4.8782">
        <ele>272</ele>
        <time>2020-09-22T10:58:14Z</time>
      </trkpt>
      <trkpt lat="46.51493" lon="4.878">
        <ele>274</ele>
        <time>2020-09-22T10:58:18Z</time>
      </trkpt>
      <trkpt lat="46.51519" lon="4.87752">
        <ele>276</ele>
        <time>2020-09-22T10:58:27Z</time>
      </trkpt>
      <trkpt lat="46.5154" lon="4.87689">
        <ele>280</ele>
        <time>2020-09-22T10:58:39Z</time>
      </trkpt>
      <trkpt lat="46.51551" lon="4.87632">
        <ele>284</ele>
        <time>2020-09-22T10:58:48Z</time>
      </trkpt>
      <trkpt lat="46.51559" lon="4.87547">
        <ele>289</ele>
        <time>2020-09-22T10:59:02Z</time>
      </trkpt>
      <trkpt lat="46.51567" lon="4.87495">
        <ele>290</ele>
        <time>2020-09-22T10:59:11Z</time>
      </trkpt>
      <trkpt lat="46.5158" lon="4.8746">
        <ele>290</ele>
        <time>2020-09-22T10:59:17Z</time>
      </trkpt>
      <trkpt lat="46.516" lon="4.87423">
        <ele>291</ele>
        <time>2020-09-22T10:59:24Z</time>
      </trkpt>
      <trkpt lat="46.51602" lon="4.87413">
        <ele>292</ele>
        <time>2020-09-22T10:59:26Z</time>
      </trkpt>
      <trkpt lat="46.5159" lon="4.873">
        <ele>292</ele>
        <time>2020-09-22T10:59:45Z</time>
      </trkpt>
      <trkpt lat="46.5159" lon="4.87274">
        <ele>292</ele>
        <time>2020-09-22T10:59:49Z</time>
      </trkpt>
      <trkpt lat="46.51582" lon="4.87285">
        <ele>291</ele>
        <time>2020-09-22T10:59:51Z</time>
      </trkpt>
      <trkpt lat="46.51561" lon="4.87301">
        <ele>292</ele>
        <time>2020-09-22T10:59:57Z</time>
      </trkpt>
      <trkpt lat="46.51547" lon="4.87315">
        <ele>293</ele>
        <time>2020-09-22T11:00:01Z</time>
      </trkpt>
      <trkpt lat="46.51526" lon="4.87416">
        <ele>297</ele>
        <time>2020-09-22T11:00:18Z</time>
      </trkpt>
      <trkpt lat="46.51491" lon="4.87457">
        <ele>300</ele>
        <time>2020-09-22T11:00:28Z</time>
      </trkpt>
      <trkpt lat="46.51409" lon="4.87363">
        <ele>312</ele>
        <time>2020-09-22T11:00:53Z</time>
      </trkpt>
      <trkpt lat="46.51404" lon="4.87341">
        <ele>313</ele>
        <time>2020-09-22T11:00:56Z</time>
      </trkpt>
      <trkpt lat="46.51395" lon="4.87325">
        <ele>313</ele>
        <time>2020-09-22T11:01:00Z</time>
      </trkpt>
      <trkpt lat="46.51387" lon="4.87317">
        <ele>312</ele>
        <time>2020-09-22T11:01:02Z</time>
      </trkpt>
      <trkpt lat="46.51366" lon="4.87305">
        <ele>313</ele>
        <time>2020-09-22T11:01:07Z</time>
      </trkpt>
      <trkpt lat="46.51312" lon="4.87281">
        <ele>314</ele>
        <time>2020-09-22T11:01:20Z</time>
      </trkpt>
      <trkpt lat="46.51288" lon="4.87262">
        <ele>314</ele>
        <time>2020-09-22T11:01:27Z</time>
      </trkpt>
      <trkpt lat="46.51248" lon="4.87252">
        <ele>315</ele>
        <time>2020-09-22T11:01:36Z</time>
      </trkpt>
      <trkpt lat="46.5122" lon="4.87226">
        <ele>311</ele>
        <time>2020-09-22T11:01:44Z</time>
      </trkpt>
      <trkpt lat="46.51171" lon="4.87206">
        <ele>309</ele>
        <time>2020-09-22T11:01:56Z</time>
      </trkpt>
      <trkpt lat="46.51145" lon="4.87199">
        <ele>308</ele>
        <time>2020-09-22T11:02:02Z</time>
      </trkpt>
      <trkpt lat="46.51116" lon="4.87198">
        <ele>308</ele>
        <time>2020-09-22T11:02:09Z</time>
      </trkpt>
      <trkpt lat="46.51095" lon="4.87192">
        <ele>307</ele>
        <time>2020-09-22T11:02:14Z</time>
      </trkpt>
      <trkpt lat="46.51079" lon="4.87192">
        <ele>307</ele>
        <time>2020-09-22T11:02:18Z</time>
      </trkpt>
      <trkpt lat="46.51048" lon="4.87186">
        <ele>305</ele>
        <time>2020-09-22T11:02:25Z</time>
      </trkpt>
      <trkpt lat="46.51001" lon="4.87163">
        <ele>302</ele>
        <time>2020-09-22T11:02:36Z</time>
      </trkpt>
      <trkpt lat="46.50986" lon="4.87154">
        <ele>299</ele>
        <time>2020-09-22T11:02:40Z</time>
      </trkpt>
      <trkpt lat="46.50966" lon="4.87137">
        <ele>296</ele>
        <time>2020-09-22T11:02:46Z</time>
      </trkpt>
      <trkpt lat="46.50944" lon="4.87128">
        <ele>294</ele>
        <time>2020-09-22T11:02:51Z</time>
      </trkpt>
      <trkpt lat="46.50909" lon="4.87119">
        <ele>292</ele>
        <time>2020-09-22T11:02:59Z</time>
      </trkpt>
      <trkpt lat="46.50892" lon="4.87117">
        <ele>291</ele>
        <time>2020-09-22T11:03:03Z</time>
      </trkpt>
      <trkpt lat="46.50859" lon="4.87106">
        <ele>289</ele>
        <time>2020-09-22T11:03:11Z</time>
      </trkpt>
      <trkpt lat="46.50831" lon="4.8712">
        <ele>286</ele>
        <time>2020-09-22T11:03:18Z</time>
      </trkpt>
      <trkpt lat="46.50799" lon="4.87116">
        <ele>283</ele>
        <time>2020-09-22T11:03:26Z</time>
      </trkpt>
      <trkpt lat="46.50765" lon="4.87118">
        <ele>279</ele>
        <time>2020-09-22T11:03:34Z</time>
      </trkpt>
      <trkpt lat="46.50735" lon="4.87114">
        <ele>276</ele>
        <time>2020-09-22T11:03:41Z</time>
      </trkpt>
      <trkpt lat="46.50714" lon="4.87096">
        <ele>272</ele>
        <time>2020-09-22T11:03:46Z</time>
      </trkpt>
      <trkpt lat="46.50709" lon="4.87113">
        <ele>272</ele>
        <time>2020-09-22T11:03:49Z</time>
      </trkpt>
      <trkpt lat="46.50709" lon="4.87133">
        <ele>274</ele>
        <time>2020-09-22T11:03:52Z</time>
      </trkpt>
      <trkpt lat="46.50718" lon="4.87314">
        <ele>269</ele>
        <time>2020-09-22T11:04:22Z</time>
      </trkpt>
      <trkpt lat="46.50725" lon="4.87397">
        <ele>267</ele>
        <time>2020-09-22T11:04:35Z</time>
      </trkpt>
      <trkpt lat="46.50723" lon="4.87414">
        <ele>267</ele>
        <time>2020-09-22T11:04:38Z</time>
      </trkpt>
      <trkpt lat="46.50717" lon="4.87432">
        <ele>267</ele>
        <time>2020-09-22T11:04:41Z</time>
      </trkpt>
      <trkpt lat="46.50698" lon="4.87476">
        <ele>268</ele>
        <time>2020-09-22T11:04:49Z</time>
      </trkpt>
      <trkpt lat="46.50688" lon="4.87531">
        <ele>269</ele>
        <time>2020-09-22T11:04:59Z</time>
      </trkpt>
      <trkpt lat="46.50689" lon="4.87558">
        <ele>271</ele>
        <time>2020-09-22T11:05:03Z</time>
      </trkpt>
      <trkpt lat="46.5068" lon="4.87675">
        <ele>269</ele>
        <time>2020-09-22T11:05:22Z</time>
      </trkpt>
      <trkpt lat="46.50682" lon="4.87829">
        <ele>265</ele>
        <time>2020-09-22T11:05:47Z</time>
      </trkpt>
      <trkpt lat="46.5067" lon="4.87933">
        <ele>261</ele>
        <time>2020-09-22T11:06:04Z</time>
      </trkpt>
      <trkpt lat="46.50652" lon="4.88029">
        <ele>256</ele>
        <time>2020-09-22T11:06:20Z</time>
      </trkpt>
      <trkpt lat="46.50644" lon="4.88044">
        <ele>254</ele>
        <time>2020-09-22T11:06:23Z</time>
      </trkpt>
      <trkpt lat="46.50579" lon="4.88206">
        <ele>245</ele>
        <time>2020-09-22T11:06:53Z</time>
      </trkpt>
      <trkpt lat="46.50532" lon="4.88314">
        <ele>238</ele>
        <time>2020-09-22T11:07:13Z</time>
      </trkpt>
      <trkpt lat="46.50514" lon="4.88351">
        <ele>236</ele>
        <time>2020-09-22T11:07:21Z</time>
      </trkpt>
      <trkpt lat="46.50485" lon="4.88394">
        <ele>233</ele>
        <time>2020-09-22T11:07:30Z</time>
      </trkpt>
      <trkpt lat="46.50467" lon="4.88426">
        <ele>231</ele>
        <time>2020-09-22T11:07:37Z</time>
      </trkpt>
      <trkpt lat="46.50433" lon="4.88493">
        <ele>229</ele>
        <time>2020-09-22T11:07:50Z</time>
      </trkpt>
      <trkpt lat="46.50425" lon="4.88505">
        <ele>228</ele>
        <time>2020-09-22T11:07:53Z</time>
      </trkpt>
      <trkpt lat="46.50413" lon="4.88514">
        <ele>228</ele>
        <time>2020-09-22T11:07:56Z</time>
      </trkpt>
      <trkpt lat="46.5041" lon="4.88531">
        <ele>227</ele>
        <time>2020-09-22T11:07:59Z</time>
      </trkpt>
      <trkpt lat="46.50401" lon="4.88528">
        <ele>227</ele>
        <time>2020-09-22T11:08:01Z</time>
      </trkpt>
      <trkpt lat="46.50372" lon="4.88563">
        <ele>226</ele>
        <time>2020-09-22T11:08:10Z</time>
      </trkpt>
      <trkpt lat="46.50337" lon="4.88611">
        <ele>224</ele>
        <time>2020-09-22T11:08:21Z</time>
      </trkpt>
      <trkpt lat="46.50325" lon="4.88622">
        <ele>223</ele>
        <time>2020-09-22T11:08:24Z</time>
      </trkpt>
      <trkpt lat="46.50309" lon="4.88626">
        <ele>223</ele>
        <time>2020-09-22T11:08:28Z</time>
      </trkpt>
      <trkpt lat="46.50298" lon="4.88623">
        <ele>222</ele>
        <time>2020-09-22T11:08:31Z</time>
      </trkpt>
      <trkpt lat="46.50274" lon="4.88599">
        <ele>222</ele>
        <time>2020-09-22T11:08:38Z</time>
      </trkpt>
      <trkpt lat="46.50247" lon="4.88583">
        <ele>222</ele>
        <time>2020-09-22T11:08:44Z</time>
      </trkpt>
      <trkpt lat="46.50229" lon="4.88576">
        <ele>222</ele>
        <time>2020-09-22T11:08:49Z</time>
      </trkpt>
    </trkseg>
  </trk>
</gpx>